Thorco Avantgarde — V2ET5 — position and weather

sailwx.info

Track history (hours):
 
Tides and Currents Weather Stations Pressure Air Temp Water Temp Dewpoint Dewpoint Depression Visibility Wind Speed Wind Dir Waves Ship Positions

Thorco Avantgarde

Last reported at 2018-May-23 07:34 UTC. Time now 2018-May-24 02:32 UTC.
Position N 24°17' E 118°57'.

Length 132 m; draft 4.4 m.

Type: Cargo ship. MMSI: 305546000.

Date/timePositionNaut miles runAvg speedWind from/ knotsBaromVisibWave heightAir tempDewpointWater temp
2018-May-23 07:34N 24°17' E 118°57'513.5
2018-May-23 07:13N 24°14' E 118°53'513.7
2018-May-23 06:52N 24°11' E 118°49'513.7
2018-May-23 06:30N 24°08' E 118°45'1213.9
2018-May-23 05:38N 23°60' E 118°35'213.9
2018-May-23 05:30N 23°58' E 118°34'713.7
2018-May-23 05:00N 23°54' E 118°28'713.5
2018-May-23 04:31N 23°50' E 118°23'913.4
2018-May-23 03:49N 23°44' E 118°15'413.1
2018-May-23 03:30N 23°41' E 118°12'613.0
2018-May-23 03:00N 23°36' E 118°07'612.7
2018-May-23 02:30N 23°32' E 118°01'612.6
2018-May-23 02:00N 23°28' E 117°56'612.5
2018-May-23 01:30N 23°25' E 117°50'612.5
2018-May-23 01:00N 23°21' E 117°45'712.6
2018-May-23 00:25N 23°17' E 117°38'  
Track history (hours):
 
Tides and Currents Weather Stations Pressure Air Temp Water Temp Dewpoint Dewpoint Depression Visibility Wind Speed Wind Dir Waves Ship Positions

Thorco Avantgarde

Last reported at 2018-May-23 07:34 UTC. Time now 2018-May-24 02:32 UTC.
Position N 24°17' E 118°57'.

Length 132 m; draft 4.4 m.

Type: Cargo ship. MMSI: 305546000.

Date/timePositionNaut miles runAvg speedWind from/ knotsBaromVisibWave heightAir tempDewpointWater temp
2018-May-23 07:34N 24°17' E 118°57'513.5
2018-May-23 07:13N 24°14' E 118°53'513.7
2018-May-23 06:52N 24°11' E 118°49'513.7
2018-May-23 06:30N 24°08' E 118°45'1213.9
2018-May-23 05:38N 23°60' E 118°35'213.9
2018-May-23 05:30N 23°58' E 118°34'713.7
2018-May-23 05:00N 23°54' E 118°28'713.5
2018-May-23 04:31N 23°50' E 118°23'913.4
2018-May-23 03:49N 23°44' E 118°15'413.1
2018-May-23 03:30N 23°41' E 118°12'613.0
2018-May-23 03:00N 23°36' E 118°07'612.7
2018-May-23 02:30N 23°32' E 118°01'612.6
2018-May-23 02:00N 23°28' E 117°56'612.5
2018-May-23 01:30N 23°25' E 117°50'612.5
2018-May-23 01:00N 23°21' E 117°45'712.6
2018-May-23 00:25N 23°17' E 117°38'  

Dump ship's entire track history